sensor_id;sensor_type;location;lat;lon;timestamp;P1;durP1;ratioP1;P2;durP2;ratioP2
45476;SDS011;31958;51.756;-2.556;2023-12-14T00:01:24;9.70;;;2.92;;
45476;SDS011;31958;51.756;-2.556;2023-12-14T00:03:49;5.05;;;2.40;;
45476;SDS011;31958;51.756;-2.556;2023-12-14T00:06:15;10.70;;;3.88;;
45476;SDS011;31958;51.756;-2.556;2023-12-14T00:08:40;5.57;;;2.30;;
45476;SDS011;31958;51.756;-2.556;2023-12-14T00:11:06;7.43;;;3.25;;
45476;SDS011;31958;51.756;-2.556;2023-12-14T00:13:32;10.20;;;3.10;;
45476;SDS011;31958;51.756;-2.556;2023-12-14T00:15:58;7.53;;;2.90;;
45476;SDS011;31958;51.756;-2.556;2023-12-14T00:18:23;10.13;;;3.03;;
45476;SDS011;31958;51.756;-2.556;2023-12-14T00:20:49;14.40;;;3.03;;
45476;SDS011;31958;51.756;-2.556;2023-12-14T00:23:14;12.95;;;2.70;;
45476;SDS011;31958;51.756;-2.556;2023-12-14T00:25:39;4.38;;;2.25;;
45476;SDS011;31958;51.756;-2.556;2023-12-14T00:28:05;6.15;;;2.67;;
45476;SDS011;31958;51.756;-2.556;2023-12-14T00:30:30;7.82;;;3.33;;
45476;SDS011;31958;51.756;-2.556;2023-12-14T00:32:55;5.22;;;3.13;;
45476;SDS011;31958;51.756;-2.556;2023-12-14T00:35:21;8.30;;;2.75;;
45476;SDS011;31958;51.756;-2.556;2023-12-14T00:37:46;7.35;;;2.58;;
45476;SDS011;31958;51.756;-2.556;2023-12-14T00:40:11;4.80;;;2.08;;
45476;SDS011;31958;51.756;-2.556;2023-12-14T00:42:37;6.15;;;2.78;;
45476;SDS011;31958;51.756;-2.556;2023-12-14T00:45:02;6.63;;;3.13;;
45476;SDS011;31958;51.756;-2.556;2023-12-14T00:47:28;6.43;;;2.50;;
45476;SDS011;31958;51.756;-2.556;2023-12-14T00:49:53;4.18;;;2.50;;
45476;SDS011;31958;51.756;-2.556;2023-12-14T00:52:18;4.50;;;2.70;;
45476;SDS011;31958;51.756;-2.556;2023-12-14T00:54:44;8.95;;;3.40;;
45476;SDS011;31958;51.756;-2.556;2023-12-14T00:57:09;7.70;;;3.10;;
45476;SDS011;31958;51.756;-2.556;2023-12-14T00:59:34;8.57;;;2.50;;
45476;SDS011;31958;51.756;-2.556;2023-12-14T01:02:00;4.22;;;2.33;;
45476;SDS011;31958;51.756;-2.556;2023-12-14T01:04:25;4.53;;;2.75;;
45476;SDS011;31958;51.756;-2.556;2023-12-14T01:06:50;4.47;;;2.33;;
45476;SDS011;31958;51.756;-2.556;2023-12-14T01:09:16;4.55;;;2.70;;
45476;SDS011;31958;51.756;-2.556;2023-12-14T01:11:41;4.00;;;2.15;;
45476;SDS011;31958;51.756;-2.556;2023-12-14T01:14:06;5.22;;;2.75;;
45476;SDS011;31958;51.756;-2.556;2023-12-14T01:16:32;2.85;;;1.88;;
45476;SDS011;31958;51.756;-2.556;2023-12-14T01:18:57;5.43;;;2.17;;
45476;SDS011;31958;51.756;-2.556;2023-12-14T01:21:22;4.28;;;2.45;;
45476;SDS011;31958;51.756;-2.556;2023-12-14T01:23:48;10.07;;;2.92;;
45476;SDS011;31958;51.756;-2.556;2023-12-14T01:26:14;11.93;;;3.00;;
45476;SDS011;31958;51.756;-2.556;2023-12-14T01:28:39;5.55;;;2.80;;
45476;SDS011;31958;51.756;-2.556;2023-12-14T01:31:04;6.00;;;2.95;;
45476;SDS011;31958;51.756;-2.556;2023-12-14T01:33:30;8.57;;;2.80;;
45476;SDS011;31958;51.756;-2.556;2023-12-14T01:35:55;8.43;;;2.55;;
45476;SDS011;31958;51.756;-2.556;2023-12-14T01:38:21;5.88;;;2.50;;
45476;SDS011;31958;51.756;-2.556;2023-12-14T01:40:46;5.07;;;2.53;;
45476;SDS011;31958;51.756;-2.556;2023-12-14T01:43:11;11.43;;;2.63;;
45476;SDS011;31958;51.756;-2.556;2023-12-14T01:45:37;4.70;;;2.50;;
45476;SDS011;31958;51.756;-2.556;2023-12-14T01:48:03;9.95;;;3.00;;
45476;SDS011;31958;51.756;-2.556;2023-12-14T01:50:29;7.70;;;2.88;;
45476;SDS011;31958;51.756;-2.556;2023-12-14T01:52:54;8.65;;;2.97;;
45476;SDS011;31958;51.756;-2.556;2023-12-14T01:55:20;14.50;;;4.18;;
45476;SDS011;31958;51.756;-2.556;2023-12-14T01:57:45;8.23;;;2.88;;
45476;SDS011;31958;51.756;-2.556;2023-12-14T02:00:13;11.57;;;2.50;;
45476;SDS011;31958;51.756;-2.556;2023-12-14T02:02:45;14.75;;;3.33;;
45476;SDS011;31958;51.756;-2.556;2023-12-14T02:05:10;5.35;;;2.10;;
45476;SDS011;31958;51.756;-2.556;2023-12-14T02:07:35;4.15;;;2.25;;
45476;SDS011;31958;51.756;-2.556;2023-12-14T02:10:01;10.40;;;2.63;;
45476;SDS011;31958;51.756;-2.556;2023-12-14T02:12:26;8.10;;;2.33;;
45476;SDS011;31958;51.756;-2.556;2023-12-14T02:14:51;10.40;;;2.53;;
45476;SDS011;31958;51.756;-2.556;2023-12-14T02:17:17;14.73;;;3.30;;
45476;SDS011;31958;51.756;-2.556;2023-12-14T02:19:42;10.15;;;2.72;;
45476;SDS011;31958;51.756;-2.556;2023-12-14T02:22:07;6.95;;;2.72;;
45476;SDS011;31958;51.756;-2.556;2023-12-14T02:24:33;10.85;;;2.95;;
45476;SDS011;31958;51.756;-2.556;2023-12-14T02:26:58;10.43;;;2.90;;
45476;SDS011;31958;51.756;-2.556;2023-12-14T02:29:23;13.65;;;3.42;;
45476;SDS011;31958;51.756;-2.556;2023-12-14T02:31:49;5.82;;;2.53;;
45476;SDS011;31958;51.756;-2.556;2023-12-14T02:34:14;6.93;;;3.30;;
45476;SDS011;31958;51.756;-2.556;2023-12-14T02:36:39;9.88;;;3.38;;
45476;SDS011;31958;51.756;-2.556;2023-12-14T02:39:05;6.80;;;3.20;;
45476;SDS011;31958;51.756;-2.556;2023-12-14T02:41:30;6.90;;;3.40;;
45476;SDS011;31958;51.756;-2.556;2023-12-14T02:43:55;12.23;;;3.65;;
45476;SDS011;31958;51.756;-2.556;2023-12-14T02:46:21;11.32;;;3.63;;
45476;SDS011;31958;51.756;-2.556;2023-12-14T02:48:46;9.98;;;3.38;;
45476;SDS011;31958;51.756;-2.556;2023-12-14T02:51:12;11.68;;;3.97;;
45476;SDS011;31958;51.756;-2.556;2023-12-14T02:53:39;14.20;;;3.58;;
45476;SDS011;31958;51.756;-2.556;2023-12-14T02:56:04;16.10;;;3.33;;
45476;SDS011;31958;51.756;-2.556;2023-12-14T02:58:30;14.45;;;3.88;;
45476;SDS011;31958;51.756;-2.556;2023-12-14T03:00:55;10.50;;;3.55;;
45476;SDS011;31958;51.756;-2.556;2023-12-14T03:03:21;10.95;;;3.28;;
45476;SDS011;31958;51.756;-2.556;2023-12-14T03:05:46;8.55;;;3.30;;
45476;SDS011;31958;51.756;-2.556;2023-12-14T03:08:11;13.20;;;3.40;;
45476;SDS011;31958;51.756;-2.556;2023-12-14T03:10:37;15.90;;;3.72;;
45476;SDS011;31958;51.756;-2.556;2023-12-14T03:13:02;8.57;;;2.97;;
45476;SDS011;31958;51.756;-2.556;2023-12-14T03:15:27;11.52;;;3.13;;
45476;SDS011;31958;51.756;-2.556;2023-12-14T03:17:53;5.55;;;2.70;;
45476;SDS011;31958;51.756;-2.556;2023-12-14T03:20:18;6.15;;;2.75;;
45476;SDS011;31958;51.756;-2.556;2023-12-14T03:22:43;13.07;;;3.67;;
45476;SDS011;31958;51.756;-2.556;2023-12-14T03:25:09;12.45;;;3.03;;
45476;SDS011;31958;51.756;-2.556;2023-12-14T03:27:35;8.23;;;2.67;;
45476;SDS011;31958;51.756;-2.556;2023-12-14T03:30:00;8.48;;;3.58;;
45476;SDS011;31958;51.756;-2.556;2023-12-14T03:32:26;7.53;;;2.72;;
45476;SDS011;31958;51.756;-2.556;2023-12-14T03:34:51;6.68;;;2.72;;
45476;SDS011;31958;51.756;-2.556;2023-12-14T03:37:16;7.20;;;3.15;;
45476;SDS011;31958;51.756;-2.556;2023-12-14T03:39:41;14.25;;;3.55;;
45476;SDS011;31958;51.756;-2.556;2023-12-14T03:42:07;10.02;;;2.88;;
45476;SDS011;31958;51.756;-2.556;2023-12-14T03:44:32;8.20;;;2.55;;
45476;SDS011;31958;51.756;-2.556;2023-12-14T03:46:57;15.85;;;2.75;;
45476;SDS011;31958;51.756;-2.556;2023-12-14T03:49:25;15.52;;;3.55;;
45476;SDS011;31958;51.756;-2.556;2023-12-14T03:51:50;8.93;;;3.20;;
45476;SDS011;31958;51.756;-2.556;2023-12-14T03:54:15;19.17;;;3.38;;
45476;SDS011;31958;51.756;-2.556;2023-12-14T03:56:40;10.07;;;3.10;;
45476;SDS011;31958;51.756;-2.556;2023-12-14T03:59:06;18.20;;;3.47;;
45476;SDS011;31958;51.756;-2.556;2023-12-14T04:01:32;9.50;;;3.50;;
45476;SDS011;31958;51.756;-2.556;2023-12-14T04:03:58;11.50;;;3.33;;
45476;SDS011;31958;51.756;-2.556;2023-12-14T04:06:23;9.25;;;3.75;;
45476;SDS011;31958;51.756;-2.556;2023-12-14T04:08:49;11.85;;;3.25;;
45476;SDS011;31958;51.756;-2.556;2023-12-14T04:11:14;13.10;;;3.22;;
45476;SDS011;31958;51.756;-2.556;2023-12-14T04:13:39;16.65;;;3.22;;
45476;SDS011;31958;51.756;-2.556;2023-12-14T04:16:05;11.38;;;4.10;;
45476;SDS011;31958;51.756;-2.556;2023-12-14T04:18:31;10.43;;;3.40;;
45476;SDS011;31958;51.756;-2.556;2023-12-14T04:20:56;7.95;;;3.28;;
45476;SDS011;31958;51.756;-2.556;2023-12-14T04:23:21;9.52;;;3.92;;
45476;SDS011;31958;51.756;-2.556;2023-12-14T04:25:47;11.63;;;3.42;;
45476;SDS011;31958;51.756;-2.556;2023-12-14T04:28:12;16.33;;;3.55;;
45476;SDS011;31958;51.756;-2.556;2023-12-14T04:30:37;16.00;;;5.03;;
45476;SDS011;31958;51.756;-2.556;2023-12-14T04:33:03;10.30;;;4.07;;
45476;SDS011;31958;51.756;-2.556;2023-12-14T04:35:28;7.13;;;3.42;;
45476;SDS011;31958;51.756;-2.556;2023-12-14T04:37:53;12.00;;;4.07;;
45476;SDS011;31958;51.756;-2.556;2023-12-14T04:40:19;9.98;;;3.10;;
45476;SDS011;31958;51.756;-2.556;2023-12-14T04:42:44;15.70;;;3.97;;
45476;SDS011;31958;51.756;-2.556;2023-12-14T04:45:10;12.07;;;3.05;;
45476;SDS011;31958;51.756;-2.556;2023-12-14T04:47:35;9.02;;;3.13;;
45476;SDS011;31958;51.756;-2.556;2023-12-14T04:50:01;12.27;;;2.97;;
45476;SDS011;31958;51.756;-2.556;2023-12-14T04:52:27;11.15;;;3.47;;
45476;SDS011;31958;51.756;-2.556;2023-12-14T04:54:52;5.78;;;1.83;;
45476;SDS011;31958;51.756;-2.556;2023-12-14T04:57:18;12.43;;;2.70;;
45476;SDS011;31958;51.756;-2.556;2023-12-14T04:59:43;9.20;;;1.88;;
45476;SDS011;31958;51.756;-2.556;2023-12-14T05:02:08;4.60;;;2.20;;
45476;SDS011;31958;51.756;-2.556;2023-12-14T05:04:34;8.00;;;2.28;;
45476;SDS011;31958;51.756;-2.556;2023-12-14T05:06:59;9.15;;;2.20;;
45476;SDS011;31958;51.756;-2.556;2023-12-14T05:09:24;14.13;;;2.63;;
45476;SDS011;31958;51.756;-2.556;2023-12-14T05:11:50;5.32;;;2.33;;
45476;SDS011;31958;51.756;-2.556;2023-12-14T05:14:15;15.43;;;3.08;;
45476;SDS011;31958;51.756;-2.556;2023-12-14T05:16:40;6.60;;;1.88;;
45476;SDS011;31958;51.756;-2.556;2023-12-14T05:19:06;8.70;;;2.33;;
45476;SDS011;31958;51.756;-2.556;2023-12-14T05:21:31;7.35;;;2.40;;
45476;SDS011;31958;51.756;-2.556;2023-12-14T05:23:56;8.68;;;2.08;;
45476;SDS011;31958;51.756;-2.556;2023-12-14T05:26:22;5.53;;;2.05;;
45476;SDS011;31958;51.756;-2.556;2023-12-14T05:28:47;9.30;;;2.20;;
45476;SDS011;31958;51.756;-2.556;2023-12-14T05:31:13;11.57;;;2.22;;
45476;SDS011;31958;51.756;-2.556;2023-12-14T05:33:38;10.68;;;1.95;;
45476;SDS011;31958;51.756;-2.556;2023-12-14T05:36:04;4.90;;;2.15;;
45476;SDS011;31958;51.756;-2.556;2023-12-14T05:38:34;9.85;;;2.67;;
45476;SDS011;31958;51.756;-2.556;2023-12-14T05:40:59;6.70;;;1.65;;
45476;SDS011;31958;51.756;-2.556;2023-12-14T05:43:25;8.43;;;2.67;;
45476;SDS011;31958;51.756;-2.556;2023-12-14T05:45:50;9.07;;;2.08;;
45476;SDS011;31958;51.756;-2.556;2023-12-14T05:48:15;15.75;;;2.08;;
45476;SDS011;31958;51.756;-2.556;2023-12-14T05:50:40;11.82;;;2.00;;
45476;SDS011;31958;51.756;-2.556;2023-12-14T05:53:06;5.57;;;2.10;;
45476;SDS011;31958;51.756;-2.556;2023-12-14T05:55:31;8.43;;;2.03;;
45476;SDS011;31958;51.756;-2.556;2023-12-14T05:57:56;8.75;;;2.08;;
45476;SDS011;31958;51.756;-2.556;2023-12-14T06:00:22;7.10;;;2.28;;
45476;SDS011;31958;51.756;-2.556;2023-12-14T06:02:47;10.07;;;2.05;;
45476;SDS011;31958;51.756;-2.556;2023-12-14T06:05:13;5.00;;;1.88;;
45476;SDS011;31958;51.756;-2.556;2023-12-14T06:07:38;5.82;;;2.22;;
45476;SDS011;31958;51.756;-2.556;2023-12-14T06:10:03;7.25;;;1.90;;
45476;SDS011;31958;51.756;-2.556;2023-12-14T06:12:29;14.10;;;2.28;;
45476;SDS011;31958;51.756;-2.556;2023-12-14T06:14:55;5.22;;;2.25;;
45476;SDS011;31958;51.756;-2.556;2023-12-14T06:17:20;10.70;;;2.38;;
45476;SDS011;31958;51.756;-2.556;2023-12-14T06:19:45;3.53;;;1.80;;
45476;SDS011;31958;51.756;-2.556;2023-12-14T06:22:11;4.55;;;1.90;;
45476;SDS011;31958;51.756;-2.556;2023-12-14T06:24:36;5.85;;;1.85;;
45476;SDS011;31958;51.756;-2.556;2023-12-14T06:27:01;8.77;;;2.13;;
45476;SDS011;31958;51.756;-2.556;2023-12-14T06:29:27;14.88;;;2.22;;
45476;SDS011;31958;51.756;-2.556;2023-12-14T06:31:52;5.13;;;2.13;;
45476;SDS011;31958;51.756;-2.556;2023-12-14T06:34:18;6.10;;;2.33;;
45476;SDS011;31958;51.756;-2.556;2023-12-14T06:36:46;7.82;;;2.25;;
45476;SDS011;31958;51.756;-2.556;2023-12-14T06:39:12;9.20;;;2.10;;
45476;SDS011;31958;51.756;-2.556;2023-12-14T06:41:37;12.25;;;3.03;;
45476;SDS011;31958;51.756;-2.556;2023-12-14T06:44:03;4.63;;;2.17;;
45476;SDS011;31958;51.756;-2.556;2023-12-14T06:46:28;11.10;;;1.95;;
45476;SDS011;31958;51.756;-2.556;2023-12-14T06:48:54;12.55;;;2.88;;
45476;SDS011;31958;51.756;-2.556;2023-12-14T06:51:20;9.20;;;2.20;;
45476;SDS011;31958;51.756;-2.556;2023-12-14T06:53:45;6.75;;;2.60;;
45476;SDS011;31958;51.756;-2.556;2023-12-14T06:56:12;4.70;;;2.00;;
45476;SDS011;31958;51.756;-2.556;2023-12-14T06:58:42;6.40;;;2.90;;
45476;SDS011;31958;51.756;-2.556;2023-12-14T07:01:11;7.47;;;2.60;;
45476;SDS011;31958;51.756;-2.556;2023-12-14T07:03:41;11.40;;;3.03;;
45476;SDS011;31958;51.756;-2.556;2023-12-14T07:06:11;7.15;;;3.00;;
45476;SDS011;31958;51.756;-2.556;2023-12-14T07:08:37;12.90;;;3.35;;
45476;SDS011;31958;51.756;-2.556;2023-12-14T07:11:02;10.15;;;2.95;;
45476;SDS011;31958;51.756;-2.556;2023-12-14T07:13:28;10.82;;;3.35;;
45476;SDS011;31958;51.756;-2.556;2023-12-14T07:15:53;7.78;;;2.63;;
45476;SDS011;31958;51.756;-2.556;2023-12-14T07:18:19;11.40;;;3.00;;
45476;SDS011;31958;51.756;-2.556;2023-12-14T07:20:44;8.00;;;3.40;;
45476;SDS011;31958;51.756;-2.556;2023-12-14T07:23:10;12.38;;;3.20;;
45476;SDS011;31958;51.756;-2.556;2023-12-14T07:25:35;9.57;;;2.65;;
45476;SDS011;31958;51.756;-2.556;2023-12-14T07:28:00;13.75;;;2.97;;
45476;SDS011;31958;51.756;-2.556;2023-12-14T07:30:26;11.93;;;2.53;;
45476;SDS011;31958;51.756;-2.556;2023-12-14T07:32:51;6.30;;;1.85;;
45476;SDS011;31958;51.756;-2.556;2023-12-14T07:35:17;5.68;;;1.95;;
45476;SDS011;31958;51.756;-2.556;2023-12-14T07:37:42;20.27;;;2.65;;
45476;SDS011;31958;51.756;-2.556;2023-12-14T07:40:08;8.23;;;2.47;;
45476;SDS011;31958;51.756;-2.556;2023-12-14T07:42:34;7.32;;;2.42;;
45476;SDS011;31958;51.756;-2.556;2023-12-14T07:44:59;11.77;;;2.58;;
45476;SDS011;31958;51.756;-2.556;2023-12-14T07:47:25;14.20;;;3.22;;
45476;SDS011;31958;51.756;-2.556;2023-12-14T07:49:50;6.80;;;2.55;;
45476;SDS011;31958;51.756;-2.556;2023-12-14T07:52:15;8.43;;;2.20;;
45476;SDS011;31958;51.756;-2.556;2023-12-14T07:54:41;5.38;;;1.98;;
45476;SDS011;31958;51.756;-2.556;2023-12-14T07:57:06;5.88;;;2.53;;
45476;SDS011;31958;51.756;-2.556;2023-12-14T07:59:32;10.35;;;2.33;;
45476;SDS011;31958;51.756;-2.556;2023-12-14T08:01:57;5.82;;;2.35;;
45476;SDS011;31958;51.756;-2.556;2023-12-14T08:04:23;8.25;;;2.70;;
45476;SDS011;31958;51.756;-2.556;2023-12-14T08:06:49;5.35;;;2.28;;
45476;SDS011;31958;51.756;-2.556;2023-12-14T08:09:14;6.75;;;3.10;;
45476;SDS011;31958;51.756;-2.556;2023-12-14T08:11:40;10.95;;;3.08;;
45476;SDS011;31958;51.756;-2.556;2023-12-14T08:14:05;13.18;;;3.22;;
45476;SDS011;31958;51.756;-2.556;2023-12-14T08:16:31;10.70;;;2.53;;
45476;SDS011;31958;51.756;-2.556;2023-12-14T08:18:56;6.40;;;3.58;;
45476;SDS011;31958;51.756;-2.556;2023-12-14T08:21:21;23.85;;;5.93;;
45476;SDS011;31958;51.756;-2.556;2023-12-14T08:23:47;10.88;;;3.40;;
45476;SDS011;31958;51.756;-2.556;2023-12-14T08:26:12;11.60;;;2.78;;
45476;SDS011;31958;51.756;-2.556;2023-12-14T08:28:41;12.82;;;3.13;;
45476;SDS011;31958;51.756;-2.556;2023-12-14T08:31:06;13.07;;;3.28;;
45476;SDS011;31958;51.756;-2.556;2023-12-14T08:33:33;15.73;;;3.08;;
45476;SDS011;31958;51.756;-2.556;2023-12-14T08:35:58;10.13;;;3.22;;
45476;SDS011;31958;51.756;-2.556;2023-12-14T08:38:24;14.70;;;3.63;;
45476;SDS011;31958;51.756;-2.556;2023-12-14T08:40:49;18.38;;;3.90;;
45476;SDS011;31958;51.756;-2.556;2023-12-14T08:43:16;11.82;;;3.92;;
45476;SDS011;31958;51.756;-2.556;2023-12-14T08:45:41;8.52;;;2.88;;
45476;SDS011;31958;51.756;-2.556;2023-12-14T08:48:07;14.15;;;2.97;;
45476;SDS011;31958;51.756;-2.556;2023-12-14T08:50:32;7.63;;;2.63;;
45476;SDS011;31958;51.756;-2.556;2023-12-14T08:52:57;7.40;;;3.10;;
45476;SDS011;31958;51.756;-2.556;2023-12-14T08:55:26;9.68;;;2.95;;
45476;SDS011;31958;51.756;-2.556;2023-12-14T08:57:52;10.20;;;3.72;;
45476;SDS011;31958;51.756;-2.556;2023-12-14T09:00:18;9.50;;;3.05;;
45476;SDS011;31958;51.756;-2.556;2023-12-14T09:02:44;11.93;;;2.80;;
45476;SDS011;31958;51.756;-2.556;2023-12-14T09:05:11;13.68;;;3.33;;
45476;SDS011;31958;51.756;-2.556;2023-12-14T09:07:37;7.43;;;2.90;;
45476;SDS011;31958;51.756;-2.556;2023-12-14T09:10:02;9.18;;;2.60;;
45476;SDS011;31958;51.756;-2.556;2023-12-14T09:12:28;10.15;;;2.63;;
45476;SDS011;31958;51.756;-2.556;2023-12-14T09:14:53;15.52;;;2.95;;
45476;SDS011;31958;51.756;-2.556;2023-12-14T09:17:19;11.65;;;2.92;;
45476;SDS011;31958;51.756;-2.556;2023-12-14T09:19:44;11.43;;;2.60;;
45476;SDS011;31958;51.756;-2.556;2023-12-14T09:22:09;17.67;;;2.85;;
45476;SDS011;31958;51.756;-2.556;2023-12-14T09:24:35;12.20;;;2.38;;
45476;SDS011;31958;51.756;-2.556;2023-12-14T09:27:00;10.68;;;3.10;;
45476;SDS011;31958;51.756;-2.556;2023-12-14T09:29:25;12.07;;;2.63;;
45476;SDS011;31958;51.756;-2.556;2023-12-14T09:31:50;11.57;;;2.85;;
45476;SDS011;31958;51.756;-2.556;2023-12-14T09:34:16;12.30;;;2.78;;
45476;SDS011;31958;51.756;-2.556;2023-12-14T09:36:42;8.63;;;2.90;;
45476;SDS011;31958;51.756;-2.556;2023-12-14T09:39:08;8.82;;;2.97;;
45476;SDS011;31958;51.756;-2.556;2023-12-14T09:41:36;8.27;;;2.90;;
45476;SDS011;31958;51.756;-2.556;2023-12-14T09:44:03;10.48;;;3.00;;
45476;SDS011;31958;51.756;-2.556;2023-12-14T09:46:30;7.32;;;2.67;;
45476;SDS011;31958;51.756;-2.556;2023-12-14T09:48:55;11.23;;;2.85;;
45476;SDS011;31958;51.756;-2.556;2023-12-14T09:51:22;11.70;;;2.67;;
45476;SDS011;31958;51.756;-2.556;2023-12-14T09:53:49;6.65;;;2.50;;
45476;SDS011;31958;51.756;-2.556;2023-12-14T09:56:14;10.15;;;3.10;;
45476;SDS011;31958;51.756;-2.556;2023-12-14T09:58:39;10.73;;;2.67;;
45476;SDS011;31958;51.756;-2.556;2023-12-14T10:01:20;10.85;;;2.83;;
45476;SDS011;31958;51.756;-2.556;2023-12-14T10:06:33;9.23;;;3.40;;
45476;SDS011;31958;51.756;-2.556;2023-12-14T10:08:58;7.35;;;5.30;;
45476;SDS011;31958;51.756;-2.556;2023-12-14T10:11:24;9.90;;;3.50;;
45476;SDS011;31958;51.756;-2.556;2023-12-14T10:13:49;14.90;;;5.07;;
45476;SDS011;31958;51.756;-2.556;2023-12-14T10:16:31;7.45;;;4.32;;
45476;SDS011;31958;51.756;-2.556;2023-12-14T10:18:57;10.63;;;4.43;;
45476;SDS011;31958;51.756;-2.556;2023-12-14T10:21:26;9.82;;;2.92;;
45476;SDS011;31958;51.756;-2.556;2023-12-14T10:23:52;6.00;;;3.22;;
45476;SDS011;31958;51.756;-2.556;2023-12-14T10:26:21;10.90;;;2.80;;
45476;SDS011;31958;51.756;-2.556;2023-12-14T10:28:48;7.38;;;3.05;;
45476;SDS011;31958;51.756;-2.556;2023-12-14T10:31:13;6.10;;;2.97;;
45476;SDS011;31958;51.756;-2.556;2023-12-14T10:33:40;9.85;;;2.50;;
45476;SDS011;31958;51.756;-2.556;2023-12-14T10:36:05;10.18;;;2.45;;
45476;SDS011;31958;51.756;-2.556;2023-12-14T10:38:33;4.03;;;2.35;;
45476;SDS011;31958;51.756;-2.556;2023-12-14T10:40:59;6.53;;;2.70;;
45476;SDS011;31958;51.756;-2.556;2023-12-14T10:43:24;7.40;;;2.88;;
45476;SDS011;31958;51.756;-2.556;2023-12-14T10:45:50;9.40;;;2.28;;
45476;SDS011;31958;51.756;-2.556;2023-12-14T10:48:19;6.47;;;2.20;;
45476;SDS011;31958;51.756;-2.556;2023-12-14T10:50:45;7.63;;;2.40;;
45476;SDS011;31958;51.756;-2.556;2023-12-14T10:53:11;3.78;;;2.00;;
45476;SDS011;31958;51.756;-2.556;2023-12-14T10:55:41;7.05;;;2.13;;
45476;SDS011;31958;51.756;-2.556;2023-12-14T10:58:08;4.93;;;1.92;;
45476;SDS011;31958;51.756;-2.556;2023-12-14T11:00:34;4.30;;;1.98;;
45476;SDS011;31958;51.756;-2.556;2023-12-14T11:03:03;3.92;;;1.92;;
45476;SDS011;31958;51.756;-2.556;2023-12-14T11:05:29;9.63;;;2.28;;
45476;SDS011;31958;51.756;-2.556;2023-12-14T11:08:01;9.27;;;2.40;;
45476;SDS011;31958;51.756;-2.556;2023-12-14T11:13:07;9.27;;;3.40;;
45476;SDS011;31958;51.756;-2.556;2023-12-14T11:15:37;7.65;;;2.67;;
45476;SDS011;31958;51.756;-2.556;2023-12-14T11:25:56;4.13;;;2.08;;
45476;SDS011;31958;51.756;-2.556;2023-12-14T11:28:23;8.05;;;1.92;;
45476;SDS011;31958;51.756;-2.556;2023-12-14T11:30:49;9.23;;;2.72;;
45476;SDS011;31958;51.756;-2.556;2023-12-14T11:33:15;8.07;;;3.70;;
45476;SDS011;31958;51.756;-2.556;2023-12-14T11:35:41;9.98;;;4.47;;
45476;SDS011;31958;51.756;-2.556;2023-12-14T11:38:07;13.05;;;3.72;;
45476;SDS011;31958;51.756;-2.556;2023-12-14T11:40:38;13.07;;;4.47;;
45476;SDS011;31958;51.756;-2.556;2023-12-14T11:43:06;7.43;;;3.17;;
45476;SDS011;31958;51.756;-2.556;2023-12-14T11:45:33;5.95;;;2.90;;
45476;SDS011;31958;51.756;-2.556;2023-12-14T11:47:59;7.15;;;2.60;;
45476;SDS011;31958;51.756;-2.556;2023-12-14T11:50:26;8.55;;;3.30;;
45476;SDS011;31958;51.756;-2.556;2023-12-14T11:52:52;6.07;;;3.03;;
45476;SDS011;31958;51.756;-2.556;2023-12-14T11:55:18;5.38;;;2.97;;
45476;SDS011;31958;51.756;-2.556;2023-12-14T11:57:46;7.00;;;3.83;;
45476;SDS011;31958;51.756;-2.556;2023-12-14T12:00:11;5.43;;;3.17;;
45476;SDS011;31958;51.756;-2.556;2023-12-14T12:02:37;6.55;;;3.05;;
45476;SDS011;31958;51.756;-2.556;2023-12-14T12:05:03;6.10;;;2.90;;
45476;SDS011;31958;51.756;-2.556;2023-12-14T12:07:29;8.05;;;2.53;;
45476;SDS011;31958;51.756;-2.556;2023-12-14T12:09:55;5.60;;;2.50;;
45476;SDS011;31958;51.756;-2.556;2023-12-14T12:12:20;12.68;;;5.82;;
45476;SDS011;31958;51.756;-2.556;2023-12-14T12:14:46;5.93;;;2.60;;
45476;SDS011;31958;51.756;-2.556;2023-12-14T12:17:13;5.25;;;2.75;;
45476;SDS011;31958;51.756;-2.556;2023-12-14T12:19:40;6.03;;;3.17;;
45476;SDS011;31958;51.756;-2.556;2023-12-14T12:22:07;6.88;;;3.50;;
45476;SDS011;31958;51.756;-2.556;2023-12-14T12:24:33;5.63;;;2.63;;
45476;SDS011;31958;51.756;-2.556;2023-12-14T12:26:58;5.25;;;2.30;;
45476;SDS011;31958;51.756;-2.556;2023-12-14T12:29:23;8.27;;;2.35;;
45476;SDS011;31958;51.756;-2.556;2023-12-14T12:31:49;5.20;;;2.70;;
45476;SDS011;31958;51.756;-2.556;2023-12-14T12:34:14;8.05;;;3.25;;
45476;SDS011;31958;51.756;-2.556;2023-12-14T12:36:40;5.47;;;3.17;;
45476;SDS011;31958;51.756;-2.556;2023-12-14T12:39:05;6.53;;;2.28;;
45476;SDS011;31958;51.756;-2.556;2023-12-14T12:41:32;6.13;;;1.88;;
45476;SDS011;31958;51.756;-2.556;2023-12-14T12:43:58;5.63;;;1.90;;
45476;SDS011;31958;51.756;-2.556;2023-12-14T12:46:24;7.68;;;2.53;;
45476;SDS011;31958;51.756;-2.556;2023-12-14T12:48:49;4.05;;;1.77;;
45476;SDS011;31958;51.756;-2.556;2023-12-14T12:51:16;3.83;;;1.98;;
45476;SDS011;31958;51.756;-2.556;2023-12-14T12:53:42;5.00;;;2.20;;
45476;SDS011;31958;51.756;-2.556;2023-12-14T12:56:07;5.47;;;1.95;;
45476;SDS011;31958;51.756;-2.556;2023-12-14T12:58:32;5.15;;;1.83;;
45476;SDS011;31958;51.756;-2.556;2023-12-14T13:00:58;5.53;;;1.70;;
45476;SDS011;31958;51.756;-2.556;2023-12-14T13:03:23;5.93;;;1.95;;
45476;SDS011;31958;51.756;-2.556;2023-12-14T13:05:48;2.33;;;1.30;;
45476;SDS011;31958;51.756;-2.556;2023-12-14T13:08:14;5.75;;;1.00;;
45476;SDS011;31958;51.756;-2.556;2023-12-14T13:10:40;4.53;;;1.20;;
45476;SDS011;31958;51.756;-2.556;2023-12-14T13:13:05;1.63;;;0.90;;
45476;SDS011;31958;51.756;-2.556;2023-12-14T13:15:32;2.40;;;1.02;;
45476;SDS011;31958;51.756;-2.556;2023-12-14T13:17:57;3.17;;;0.80;;
45476;SDS011;31958;51.756;-2.556;2023-12-14T13:20:23;2.20;;;1.10;;
45476;SDS011;31958;51.756;-2.556;2023-12-14T13:22:49;1.92;;;0.93;;
45476;SDS011;31958;51.756;-2.556;2023-12-14T13:25:14;8.70;;;1.40;;
45476;SDS011;31958;51.756;-2.556;2023-12-14T13:27:39;5.07;;;1.00;;
45476;SDS011;31958;51.756;-2.556;2023-12-14T13:30:06;3.03;;;1.13;;
45476;SDS011;31958;51.756;-2.556;2023-12-14T13:32:32;3.90;;;1.30;;
45476;SDS011;31958;51.756;-2.556;2023-12-14T13:34:57;5.07;;;0.98;;
45476;SDS011;31958;51.756;-2.556;2023-12-14T13:37:22;2.58;;;0.90;;
45476;SDS011;31958;51.756;-2.556;2023-12-14T13:39:48;7.85;;;1.10;;
45476;SDS011;31958;51.756;-2.556;2023-12-14T13:42:14;2.40;;;0.82;;
45476;SDS011;31958;51.756;-2.556;2023-12-14T13:44:40;4.30;;;0.98;;
45476;SDS011;31958;51.756;-2.556;2023-12-14T13:47:06;2.58;;;0.73;;
45476;SDS011;31958;51.756;-2.556;2023-12-14T13:49:31;8.27;;;1.02;;
45476;SDS011;31958;51.756;-2.556;2023-12-14T13:51:58;6.00;;;1.00;;
45476;SDS011;31958;51.756;-2.556;2023-12-14T13:54:23;3.35;;;0.98;;
45476;SDS011;31958;51.756;-2.556;2023-12-14T13:56:49;2.03;;;0.82;;
45476;SDS011;31958;51.756;-2.556;2023-12-14T13:59:14;3.22;;;0.93;;
45476;SDS011;31958;51.756;-2.556;2023-12-14T14:01:39;4.03;;;1.08;;
45476;SDS011;31958;51.756;-2.556;2023-12-14T14:04:05;4.18;;;0.90;;
45476;SDS011;31958;51.756;-2.556;2023-12-14T14:06:30;2.28;;;1.00;;
45476;SDS011;31958;51.756;-2.556;2023-12-14T14:08:55;3.42;;;0.90;;
45476;SDS011;31958;51.756;-2.556;2023-12-14T14:11:21;4.78;;;1.10;;
45476;SDS011;31958;51.756;-2.556;2023-12-14T14:13:47;5.35;;;1.10;;
45476;SDS011;31958;51.756;-2.556;2023-12-14T14:16:13;5.80;;;1.13;;
45476;SDS011;31958;51.756;-2.556;2023-12-14T14:18:38;5.25;;;1.13;;
45476;SDS011;31958;51.756;-2.556;2023-12-14T14:21:04;3.63;;;0.98;;
45476;SDS011;31958;51.756;-2.556;2023-12-14T14:23:32;6.13;;;1.10;;
45476;SDS011;31958;51.756;-2.556;2023-12-14T14:25:58;5.28;;;1.30;;
45476;SDS011;31958;51.756;-2.556;2023-12-14T14:28:23;3.63;;;1.13;;
45476;SDS011;31958;51.756;-2.556;2023-12-14T14:30:48;6.05;;;1.20;;
45476;SDS011;31958;51.756;-2.556;2023-12-14T14:33:14;3.15;;;1.15;;
45476;SDS011;31958;51.756;-2.556;2023-12-14T14:35:47;4.97;;;1.10;;